Time;durP1;ratioP1;P1;durP2;ratioP2;P2;SDS_P1;SDS_P2;PMS_P1;PMS_P2;Temp;Humidity;BMP_temperature;BMP_pressure;BME280_temperature;BME280_humidity;BME280_pressure;Samples;Min_cycle;Max_cycle;Signal;HPM_P1;HPM_P2
2022/06/01 00:01:23;;;;;;;14.60;13.20;;;11.20;99.90;;;;;;5042551;28;20060;-46
2022/06/01 00:03:49;;;;;;;16.98;15.27;;;11.20;99.90;;;;;;5023928;28;20432;-47
2022/06/01 00:06:14;;;;;;;15.45;13.88;;;11.20;99.90;;;;;;5041215;28;20052;-46
2022/06/01 00:08:41;;;;;;;16.50;14.55;;;11.20;99.90;;;;;;5041272;28;20527;-45
2022/06/01 00:11:08;;;;;;;14.23;12.93;;;11.20;99.90;;;;;;5042627;28;20045;-46
2022/06/01 00:13:34;;;;;;;16.25;14.65;;;11.30;99.90;;;;;;5041834;28;20079;-46
2022/06/01 00:16:00;;;;;;;15.88;14.30;;;11.30;99.90;;;;;;5038732;28;20088;-48
2022/06/01 00:18:27;;;;;;;16.13;14.43;;;11.30;99.90;;;;;;5040901;28;20049;-46
2022/06/01 00:20:53;;;;;;;16.73;15.20;;;11.30;99.90;;;;;;5040265;28;20036;-50
2022/06/01 00:23:19;;;;;;;15.48;14.02;;;11.30;99.90;;;;;;5022969;28;20049;-46
2022/06/01 00:25:46;;;;;;;13.90;12.57;;;11.30;99.90;;;;;;5023435;28;20053;-45
2022/06/01 00:28:12;;;;;;;15.50;13.88;;;11.30;99.90;;;;;;5041626;28;20052;-50
2022/06/01 00:30:38;;;;;;;17.27;14.70;;;11.30;99.90;;;;;;5041442;28;20044;-46
2022/06/01 00:33:05;;;;;;;16.30;14.90;;;11.30;99.90;;;;;;5021058;28;20072;-46
2022/06/01 00:35:31;;;;;;;18.15;16.45;;;11.30;99.90;;;;;;5039648;28;20598;-47
2022/06/01 00:37:57;;;;;;;16.13;14.35;;;11.20;99.90;;;;;;5040434;28;20053;-43
2022/06/01 00:40:26;;;;;;;15.10;13.80;;;11.20;99.90;;;;;;5041168;28;20072;-47
2022/06/01 00:42:57;;;;;;;15.55;14.13;;;11.20;99.90;;;;;;5042090;28;20404;-48
2022/06/01 00:45:25;;;;;;;15.15;13.75;;;11.20;99.90;;;;;;5042520;28;20527;-47
2022/06/01 00:47:51;;;;;;;15.43;14.07;;;11.20;99.90;;;;;;5044617;28;20063;-49
2022/06/01 00:50:29;;;;;;;15.15;13.90;;;11.20;99.90;;;;;;5043397;28;20419;-48
2022/06/01 00:53:03;;;;;;;16.67;15.27;;;11.20;99.90;;;;;;5042014;28;20068;-49
2022/06/01 00:55:37;;;;;;;15.73;14.27;;;11.10;99.90;;;;;;5023861;28;20103;-48
2022/06/01 00:58:20;;;;;;;16.90;15.10;;;11.10;99.90;;;;;;5040786;28;20155;-46
2022/06/01 01:00:47;;;;;;;14.68;13.27;;;11.00;99.90;;;;;;5040951;28;20526;-45
2022/06/01 01:03:15;;;;;;;14.85;13.48;;;11.00;99.90;;;;;;5041132;28;20045;-45
2022/06/01 01:05:51;;;;;;;14.73;13.10;;;11.00;99.90;;;;;;5039812;28;20120;-45
2022/06/01 01:08:16;;;;;;;15.50;13.82;;;11.00;99.90;;;;;;5041402;28;20048;-46
2022/06/01 01:10:42;;;;;;;15.80;14.48;;;11.00;99.90;;;;;;5044418;28;20381;-46
2022/06/01 01:13:12;;;;;;;17.58;15.98;;;11.00;99.90;;;;;;5022220;28;20037;-43
2022/06/01 01:15:51;;;;;;;16.45;14.85;;;10.90;99.90;;;;;;5017442;28;20136;-45
2022/06/01 01:18:17;;;;;;;17.35;15.57;;;10.80;99.90;;;;;;5024113;28;20064;-46
2022/06/01 01:20:57;;;;;;;17.02;15.45;;;10.80;99.90;;;;;;5024987;28;20092;-45
2022/06/01 01:23:33;;;;;;;16.15;14.65;;;10.80;99.90;;;;;;5023547;28;20533;-46
2022/06/01 01:25:59;;;;;;;17.00;15.40;;;10.80;99.90;;;;;;5024783;28;20075;-44
2022/06/01 01:28:25;;;;;;;16.00;14.57;;;10.70;99.90;;;;;;5024029;28;20552;-46
2022/06/01 01:31:16;;;;;;;16.60;15.20;;;10.70;99.90;;;;;;5024611;28;20045;-46
2022/06/01 01:33:43;;;;;;;16.90;15.23;;;10.70;99.90;;;;;;5017642;28;20076;-46
2022/06/01 01:36:11;;;;;;;17.55;16.05;;;10.70;99.90;;;;;;5023025;28;20397;-43
2022/06/01 01:38:51;;;;;;;17.48;15.80;;;10.70;99.90;;;;;;5023809;28;20103;-44
2022/06/01 01:41:25;;;;;;;18.95;17.05;;;10.70;99.90;;;;;;5023772;28;20045;-46
2022/06/01 01:44:05;;;;;;;17.85;16.35;;;10.70;99.90;;;;;;5024110;28;20061;-45
2022/06/01 01:46:31;;;;;;;18.50;16.55;;;10.60;99.90;;;;;;5024225;28;20144;-47
2022/06/01 01:48:58;;;;;;;18.15;16.45;;;10.60;99.90;;;;;;5024172;28;20132;-45
2022/06/01 01:51:25;;;;;;;16.95;15.32;;;10.70;99.90;;;;;;5024607;28;20124;-48
2022/06/01 01:53:54;;;;;;;16.38;15.00;;;10.70;99.90;;;;;;5007074;28;20061;-51
2022/06/01 01:56:31;;;;;;;18.65;16.98;;;10.60;99.90;;;;;;5023279;28;20045;-48
2022/06/01 01:59:18;;;;;;;19.75;17.83;;;10.60;99.90;;;;;;5019363;28;20065;-45
2022/06/01 02:01:58;;;;;;;20.00;18.17;;;10.60;99.90;;;;;;5018013;28;20088;-49
2022/06/01 02:08:28;;;;;;;19.90;18.10;;;10.40;99.90;;;;;;5009637;28;20088;-52
2022/06/01 02:14:09;;;;;;;18.02;16.52;;;10.40;99.90;;;;;;5018588;28;20060;-45
2022/06/01 02:16:39;;;;;;;21.63;19.65;;;10.40;99.90;;;;;;5041008;28;20064;-45
2022/06/01 02:19:10;;;;;;;22.00;19.90;;;10.40;99.90;;;;;;5042644;28;20068;-45
2022/06/01 02:21:37;;;;;;;20.98;19.17;;;10.40;99.90;;;;;;5007897;28;20507;-46
2022/06/01 02:24:03;;;;;;;21.92;20.13;;;10.40;99.90;;;;;;5042840;28;20049;-46
2022/06/01 02:26:33;;;;;;;20.95;19.15;;;10.40;99.90;;;;;;5043053;28;20088;-50
2022/06/01 02:29:11;;;;;;;23.63;21.42;;;10.40;99.90;;;;;;5041593;28;20045;-44
2022/06/01 02:31:39;;;;;;;25.95;23.55;;;10.40;99.90;;;;;;5043057;28;20053;-47
2022/06/01 02:34:08;;;;;;;26.88;24.27;;;10.40;99.90;;;;;;5043160;28;20127;-45
2022/06/01 02:36:34;;;;;;;25.85;23.52;;;10.50;99.90;;;;;;5042251;28;20048;-47
2022/06/01 02:39:03;;;;;;;27.85;25.40;;;10.50;99.90;;;;;;5038782;28;20128;-45
2022/06/01 02:44:16;;;;;;;26.60;24.30;;;10.50;99.90;;;;;;5038293;28;20107;-48
2022/06/01 02:46:45;;;;;;;24.92;22.65;;;10.60;99.90;;;;;;5042477;28;20410;-46
2022/06/01 02:49:12;;;;;;;24.80;22.70;;;10.60;99.90;;;;;;5021263;28;20049;-45
2022/06/01 02:51:38;;;;;;;26.92;24.35;;;10.60;99.90;;;;;;5041538;28;20080;-42
2022/06/01 02:54:04;;;;;;;27.70;25.02;;;10.60;99.90;;;;;;5043263;28;20558;-47
2022/06/01 02:56:29;;;;;;;27.95;25.38;;;10.60;99.90;;;;;;5042927;28;20360;-45
2022/06/01 02:58:56;;;;;;;26.42;24.23;;;10.70;99.90;;;;;;5023967;28;20492;-48
2022/06/01 03:01:22;;;;;;;24.60;22.52;;;10.60;99.90;;;;;;5042833;28;20045;-49
2022/06/01 03:03:47;;;;;;;25.92;23.40;;;10.60;99.90;;;;;;5042678;28;20130;-45
2022/06/01 03:06:15;;;;;;;25.60;23.20;;;10.70;99.90;;;;;;5024165;28;20053;-46
2022/06/01 03:08:47;;;;;;;24.45;21.92;;;10.70;99.90;;;;;;5042703;28;20048;-45
2022/06/01 03:11:13;;;;;;;23.45;21.25;;;10.80;99.90;;;;;;5004811;28;20871;-45
2022/06/01 03:13:40;;;;;;;23.75;21.75;;;10.70;99.90;;;;;;5041142;28;20067;-47
2022/06/01 03:16:06;;;;;;;23.02;20.80;;;10.80;99.90;;;;;;5042036;28;20130;-45
2022/06/01 03:18:32;;;;;;;23.60;21.50;;;10.80;99.90;;;;;;5043370;28;20132;-48
2022/06/01 03:20:59;;;;;;;23.80;21.42;;;10.80;99.90;;;;;;5044876;28;20943;-50
2022/06/01 03:23:26;;;;;;;22.38;20.40;;;10.80;99.90;;;;;;5042575;28;20049;-49
2022/06/01 03:25:52;;;;;;;24.25;21.90;;;10.90;99.90;;;;;;5025324;28;20061;-48
2022/06/01 03:28:18;;;;;;;23.73;21.50;;;10.90;99.90;;;;;;5042664;28;20556;-51
2022/06/01 03:30:44;;;;;;;21.95;19.90;;;10.90;99.90;;;;;;5023830;28;20060;-46
2022/06/01 03:33:13;;;;;;;22.20;20.08;;;10.90;99.90;;;;;;5024931;28;20052;-44
2022/06/01 03:35:40;;;;;;;23.13;21.05;;;11.00;99.90;;;;;;5041082;28;20516;-45
2022/06/01 03:38:07;;;;;;;22.45;20.45;;;11.00;99.90;;;;;;5023680;28;20057;-45
2022/06/01 03:40:34;;;;;;;23.17;21.08;;;11.00;99.90;;;;;;5035108;28;20095;-45
2022/06/01 03:43:01;;;;;;;23.65;21.52;;;10.90;99.90;;;;;;5041347;28;20120;-46
2022/06/01 03:48:14;;;;;;;21.23;19.35;;;10.90;99.90;;;;;;5041350;28;20060;-45
2022/06/01 03:50:44;;;;;;;22.58;20.58;;;10.90;99.90;;;;;;5042237;28;20052;-45
2022/06/01 03:53:09;;;;;;;22.20;20.20;;;10.90;99.90;;;;;;5020534;28;20412;-46
2022/06/01 03:55:36;;;;;;;25.08;22.77;;;10.80;99.90;;;;;;5037228;28;20049;-45
2022/06/01 03:58:02;;;;;;;26.15;23.65;;;10.80;99.90;;;;;;5041904;28;20075;-45
2022/06/01 04:00:28;;;;;;;25.55;23.05;;;10.80;99.90;;;;;;5042080;28;20584;-48
2022/06/01 04:02:54;;;;;;;22.95;20.85;;;10.80;99.90;;;;;;5022830;28;20048;-47
2022/06/01 04:05:22;;;;;;;22.70;20.38;;;10.70;99.90;;;;;;5041266;28;20053;-46
2022/06/01 04:07:51;;;;;;;24.25;22.05;;;10.80;99.90;;;;;;5018787;28;20102;-48
2022/06/01 04:10:17;;;;;;;24.05;21.85;;;10.70;99.90;;;;;;5038736;28;20041;-46
2022/06/01 04:12:42;;;;;;;22.55;20.42;;;10.70;99.90;;;;;;5042632;28;20493;-47
2022/06/01 04:15:09;;;;;;;20.23;18.50;;;10.80;99.90;;;;;;5039574;28;20049;-43
2022/06/01 04:17:36;;;;;;;21.92;20.02;;;10.80;99.90;;;;;;5023012;28;20136;-46
2022/06/01 04:20:02;;;;;;;22.30;20.20;;;10.80;99.90;;;;;;5041296;28;20160;-45
2022/06/01 04:22:28;;;;;;;20.10;18.30;;;10.80;99.90;;;;;;5042247;28;20448;-48
2022/06/01 04:24:54;;;;;;;21.92;19.90;;;10.80;99.90;;;;;;5022180;28;20443;-48
2022/06/01 04:27:21;;;;;;;21.05;19.13;;;10.80;99.90;;;;;;5042111;28;20045;-46
2022/06/01 04:29:47;;;;;;;20.23;18.30;;;10.80;99.90;;;;;;5041639;28;20230;-47
2022/06/01 04:32:19;;;;;;;20.35;18.55;;;10.80;99.90;;;;;;5042590;28;20120;-45
2022/06/01 04:34:44;;;;;;;19.40;17.70;;;10.80;99.90;;;;;;5042018;28;20506;-48
2022/06/01 04:37:10;;;;;;;19.05;17.42;;;10.80;99.90;;;;;;5045359;28;20045;-45
2022/06/01 04:39:36;;;;;;;19.38;17.63;;;10.80;99.90;;;;;;5042047;28;20412;-49
2022/06/01 04:42:02;;;;;;;18.70;17.13;;;10.80;99.90;;;;;;5042251;28;20052;-49
2022/06/01 04:44:27;;;;;;;19.85;18.05;;;10.80;99.90;;;;;;5044618;28;20045;-46
2022/06/01 04:46:53;;;;;;;19.27;17.58;;;10.80;99.90;;;;;;5026978;28;20048;-45
2022/06/01 04:49:19;;;;;;;19.65;17.75;;;10.90;99.90;;;;;;5044288;28;20044;-48
2022/06/01 04:51:44;;;;;;;18.58;16.88;;;10.80;99.90;;;;;;5044740;28;20053;-46
2022/06/01 04:54:10;;;;;;;17.95;16.42;;;10.80;99.90;;;;;;5026820;28;20068;-45
2022/06/01 04:56:36;;;;;;;17.33;15.80;;;10.80;99.90;;;;;;5043909;28;20045;-45
2022/06/01 04:59:01;;;;;;;17.48;15.73;;;10.80;99.90;;;;;;5044313;28;20473;-47
2022/06/01 05:01:28;;;;;;;17.35;15.75;;;10.80;99.90;;;;;;5025564;28;20056;-45
2022/06/01 05:03:56;;;;;;;18.73;16.73;;;10.80;99.90;;;;;;5045826;28;20048;-46
2022/06/01 05:06:22;;;;;;;20.25;16.63;;;10.80;99.90;;;;;;5043467;28;20140;-45
2022/06/01 05:08:48;;;;;;;16.10;14.50;;;10.80;99.90;;;;;;5025933;28;20048;-46
2022/06/01 05:11:14;;;;;;;18.13;16.33;;;10.80;99.90;;;;;;5044086;28;20045;-46
2022/06/01 05:13:39;;;;;;;18.55;16.60;;;10.70;99.90;;;;;;5026712;28;20068;-44
2022/06/01 05:16:06;;;;;;;18.98;17.15;;;10.80;99.90;;;;;;5044098;28;20053;-45
2022/06/01 05:18:32;;;;;;;19.15;17.30;;;10.80;99.90;;;;;;5022112;28;20527;-47
2022/06/01 05:20:58;;;;;;;20.38;18.25;;;10.70;99.90;;;;;;5024554;28;20242;-48
2022/06/01 05:23:25;;;;;;;19.58;17.77;;;10.70;99.90;;;;;;5044420;28;20544;-46
2022/06/01 05:25:53;;;;;;;19.25;17.38;;;10.80;99.90;;;;;;5044282;28;20084;-47
2022/06/01 05:28:27;;;;;;;19.38;17.42;;;10.70;99.90;;;;;;5043734;28;20459;-47
2022/06/01 05:31:05;;;;;;;22.63;19.45;;;10.70;99.90;;;;;;5044764;28;20136;-45
2022/06/01 05:33:31;;;;;;;21.67;19.48;;;10.70;99.90;;;;;;5039650;28;20060;-46
2022/06/01 05:35:57;;;;;;;23.70;21.33;;;10.70;99.90;;;;;;5025631;28;20515;-47
2022/06/01 05:38:23;;;;;;;21.70;19.70;;;10.80;99.90;;;;;;5024624;28;20060;-48
2022/06/01 05:40:49;;;;;;;23.30;21.00;;;10.90;99.90;;;;;;5044404;28;20132;-47
2022/06/01 05:43:17;;;;;;;25.63;23.17;;;10.90;99.90;;;;;;5044755;28;20098;-47
2022/06/01 05:45:43;;;;;;;23.35;20.92;;;10.90;99.90;;;;;;5009647;28;20044;-44
2022/06/01 05:48:10;;;;;;;27.02;24.40;;;11.00;99.90;;;;;;5026602;28;20127;-44
2022/06/01 05:50:36;;;;;;;30.42;27.40;;;11.00;99.90;;;;;;5044885;28;20486;-45
2022/06/01 05:53:03;;;;;;;30.33;27.45;;;11.10;99.90;;;;;;5028282;28;20053;-50
2022/06/01 05:55:28;;;;;;;31.08;28.10;;;11.20;99.90;;;;;;5026814;28;20075;-45
2022/06/01 05:57:54;;;;;;;34.42;30.92;;;11.30;99.90;;;;;;5026766;28;20045;-52
2022/06/01 06:00:20;;;;;;;33.75;30.33;;;11.40;99.90;;;;;;5044881;28;20041;-46
2022/06/01 06:02:46;;;;;;;36.70;32.88;;;11.50;99.90;;;;;;5043967;28;20045;-43
2022/06/01 06:07:59;;;;;;;32.28;29.17;;;11.70;99.90;;;;;;5043457;28;20102;-46
2022/06/01 06:10:25;;;;;;;29.05;26.25;;;11.80;99.90;;;;;;5026407;28;20412;-47
2022/06/01 06:12:51;;;;;;;26.05;23.40;;;12.10;99.90;;;;;;5044451;28;20389;-44
2022/06/01 06:15:20;;;;;;;24.88;22.48;;;12.30;99.90;;;;;;5025115;28;20049;-43
2022/06/01 06:17:46;;;;;;;23.70;21.50;;;12.50;99.90;;;;;;5043752;28;20060;-45
2022/06/01 06:20:14;;;;;;;22.73;20.73;;;12.70;99.90;;;;;;5022736;28;20042;-47
2022/06/01 06:22:41;;;;;;;22.63;20.25;;;12.70;99.90;;;;;;5041897;28;20049;-45
2022/06/01 06:25:07;;;;;;;20.10;17.88;;;12.70;99.90;;;;;;5023899;28;20104;-44
2022/06/01 06:27:33;;;;;;;18.52;16.73;;;12.70;99.90;;;;;;5025168;28;20132;-48
2022/06/01 06:29:58;;;;;;;18.92;17.10;;;12.60;99.90;;;;;;5043730;28;20094;-47
2022/06/01 06:32:25;;;;;;;17.73;15.48;;;12.60;99.90;;;;;;5041809;28;20067;-45
2022/06/01 06:34:51;;;;;;;17.10;15.55;;;12.50;99.90;;;;;;5042243;28;20593;-47
2022/06/01 06:37:21;;;;;;;18.73;16.80;;;12.50;99.90;;;;;;5042638;28;20060;-47
2022/06/01 06:39:46;;;;;;;18.90;16.95;;;12.40;99.90;;;;;;5042474;28;20507;-45
2022/06/01 06:42:12;;;;;;;18.58;16.88;;;12.40;99.90;;;;;;5042690;28;20060;-45
2022/06/01 06:44:38;;;;;;;19.95;18.02;;;12.30;99.90;;;;;;5042587;28;20599;-46
2022/06/01 06:47:07;;;;;;;19.73;17.92;;;12.30;99.90;;;;;;5043724;28;20106;-46
2022/06/01 06:49:32;;;;;;;19.25;17.45;;;12.40;99.90;;;;;;5042503;28;20044;-45
2022/06/01 06:51:58;;;;;;;20.42;18.40;;;12.30;99.90;;;;;;5042910;28;20052;-45
2022/06/01 06:54:25;;;;;;;21.55;19.35;;;12.30;99.90;;;;;;5024459;28;20047;-48
2022/06/01 06:56:51;;;;;;;18.45;16.65;;;12.30;99.90;;;;;;5042578;28;20053;-47
2022/06/01 06:59:17;;;;;;;20.33;18.23;;;12.30;99.90;;;;;;5022005;28;20471;-49
2022/06/01 07:01:43;;;;;;;20.40;18.40;;;12.40;99.90;;;;;;5043008;28;20128;-47
2022/06/01 07:04:09;;;;;;;21.15;19.25;;;12.40;99.90;;;;;;5024942;28;20080;-43
2022/06/01 07:06:35;;;;;;;20.92;18.92;;;12.50;99.90;;;;;;5041904;28;20369;-45
2022/06/01 07:09:01;;;;;;;20.45;18.58;;;12.50;99.90;;;;;;5046318;28;20108;-47
2022/06/01 07:11:29;;;;;;;21.55;19.55;;;12.50;99.90;;;;;;5043587;28;20044;-46
2022/06/01 07:13:56;;;;;;;21.88;19.73;;;12.60;99.90;;;;;;5042375;28;20059;-46
2022/06/01 07:16:27;;;;;;;21.15;19.27;;;12.60;99.90;;;;;;5041458;28;20111;-48
2022/06/01 07:18:56;;;;;;;22.05;20.05;;;12.70;99.90;;;;;;5041961;28;20428;-46
2022/06/01 07:21:22;;;;;;;20.83;18.92;;;12.80;99.90;;;;;;5041572;28;20048;-47
2022/06/01 07:23:51;;;;;;;20.88;18.92;;;12.90;99.90;;;;;;5022503;28;20064;-46
2022/06/01 07:26:30;;;;;;;20.85;19.02;;;12.90;99.90;;;;;;5041212;28;20499;-45
2022/06/01 07:28:56;;;;;;;19.83;18.05;;;13.00;99.90;;;;;;5019701;28;20057;-48
2022/06/01 07:31:22;;;;;;;21.73;19.75;;;13.30;99.90;;;;;;5037354;28;20033;-47
2022/06/01 07:33:48;;;;;;;20.17;18.38;;;13.80;99.90;;;;;;5041690;28;20091;-46
2022/06/01 07:36:20;;;;;;;18.75;17.17;;;14.60;99.90;;;;;;5041011;28;20051;-47
2022/06/01 07:43:05;;;;;;;14.82;13.52;;;16.00;99.90;;;;;;5029931;28;20068;-47
2022/06/01 07:44:42;;;;;;;14.40;13.23;;;16.80;99.90;;;;;;5035620;28;20053;-45
2022/06/01 07:47:10;;;;;;;12.65;11.65;;;17.30;99.90;;;;;;5038123;28;20047;-44
2022/06/01 07:49:36;;;;;;;11.95;10.88;;;17.30;99.90;;;;;;5029206;28;20049;-46
2022/06/01 07:52:08;;;;;;;11.18;10.27;;;17.60;99.90;;;;;;5018704;28;20052;-46
2022/06/01 07:54:36;;;;;;;11.30;10.15;;;17.90;99.90;;;;;;5040762;28;20037;-48
2022/06/01 07:57:02;;;;;;;10.85;9.90;;;18.00;99.90;;;;;;5022092;28;20110;-48
2022/06/01 07:59:28;;;;;;;11.13;10.23;;;18.10;99.90;;;;;;5040000;28;20045;-46
2022/06/01 08:01:53;;;;;;;9.52;8.70;;;18.00;99.90;;;;;;5041051;28;20044;-45
2022/06/01 08:04:19;;;;;;;8.90;8.20;;;17.80;99.90;;;;;;5040489;28;20456;-48
2022/06/01 08:06:45;;;;;;;9.85;9.05;;;17.50;99.90;;;;;;5040387;28;20483;-47
2022/06/01 08:09:11;;;;;;;9.05;8.20;;;17.10;99.90;;;;;;5023014;28;20053;-46
2022/06/01 08:14:24;;;;;;;9.27;8.48;;;17.40;99.90;;;;;;5040971;28;20183;-47
2022/06/01 08:16:49;;;;;;;8.02;7.28;;;17.70;99.90;;;;;;5041595;28;20516;-47
2022/06/01 08:19:16;;;;;;;8.15;7.38;;;17.80;99.90;;;;;;5045380;28;20496;-46
2022/06/01 08:21:44;;;;;;;7.32;6.72;;;17.90;99.90;;;;;;5029450;28;20131;-45
2022/06/01 08:24:10;;;;;;;8.07;7.38;;;17.90;99.90;;;;;;5026658;28;20057;-48
2022/06/01 08:26:36;;;;;;;7.93;7.22;;;18.10;99.90;;;;;;5043096;28;20497;-50
2022/06/01 08:29:03;;;;;;;7.32;6.72;;;18.50;99.90;;;;;;5044766;28;20101;-47
2022/06/01 08:31:30;;;;;;;6.75;6.15;;;18.80;99.90;;;;;;5026959;28;20149;-48
2022/06/01 08:34:00;;;;;;;5.97;5.38;;;19.00;99.90;;;;;;5044802;28;20087;-46
2022/06/01 08:36:26;;;;;;;4.95;3.63;;;19.20;99.90;;;;;;5044955;28;20057;-45
2022/06/01 08:38:53;;;;;;;6.53;4.95;;;19.10;99.90;;;;;;5043172;28;20072;-47
2022/06/01 08:41:23;;;;;;;4.53;3.53;;;19.20;99.90;;;;;;5043715;28;20060;-44
2022/06/01 08:43:59;;;;;;;6.03;5.35;;;19.10;99.90;;;;;;5037026;28;20048;-48
2022/06/01 08:46:26;;;;;;;5.30;4.80;;;19.20;99.90;;;;;;5042924;28;20091;-47
2022/06/01 08:49:24;;;;;;;6.13;4.75;;;19.30;99.90;;;;;;5042884;28;20523;-45
2022/06/01 08:51:52;;;;;;;5.10;4.32;;;19.40;99.90;;;;;;5042765;28;20419;-47
2022/06/01 08:54:17;;;;;;;5.50;4.43;;;19.60;99.90;;;;;;5044120;28;20452;-45
2022/06/01 08:56:46;;;;;;;4.22;3.83;;;19.70;99.90;;;;;;5043380;28;20052;-46
2022/06/01 08:59:33;;;;;;;5.15;4.65;;;19.70;99.90;;;;;;5043167;28;20064;-45
2022/06/01 09:02:34;;;;;;;4.38;3.97;;;19.80;99.90;;;;;;5024464;28;20053;-43
2022/06/01 09:05:24;;;;;;;3.75;3.00;;;19.80;99.90;;;;;;4940683;29;20059;-45
2022/06/01 09:08:28;;;;;;;3.60;3.30;;;19.80;99.90;;;;;;4939432;29;20055;-44
2022/06/01 09:11:11;;;;;;;5.07;3.40;;;19.60;99.90;;;;;;4885413;29;20056;-47
2022/06/01 09:13:49;;;;;;;4.97;3.65;;;19.60;99.90;;;;;;4886020;29;20063;-47
2022/06/01 09:16:20;;;;;;;5.60;3.85;;;19.60;99.90;;;;;;4885890;29;20060;-47
2022/06/01 09:18:53;;;;;;;4.20;2.92;;;19.40;99.90;;;;;;4884131;29;20531;-47
2022/06/01 09:24:23;;;;;;;4.78;3.47;;;19.20;99.90;;;;;;4885160;29;20057;-45
2022/06/01 09:27:11;;;;;;;3.03;2.72;;;19.20;99.90;;;;;;4886149;29;20163;-46
2022/06/01 09:29:45;;;;;;;3.08;2.78;;;19.10;99.90;;;;;;4884959;29;20052;-44
2022/06/01 09:32:33;;;;;;;4.07;2.67;;;18.90;99.90;;;;;;4886444;29;20095;-45
2022/06/01 09:35:04;;;;;;;3.40;3.10;;;18.70;99.90;;;;;;4886162;29;20064;-46
2022/06/01 09:37:34;;;;;;;3.30;3.00;;;18.30;99.90;;;;;;4881073;29;20059;-45
2022/06/01 09:40:04;;;;;;;4.32;3.45;;;18.10;99.90;;;;;;4866163;29;20148;-47
2022/06/01 09:42:37;;;;;;;4.15;2.90;;;17.70;99.90;;;;;;4923979;29;20721;-49
2022/06/01 09:45:22;;;;;;;3.60;3.22;;;17.20;99.90;;;;;;4979903;28;20286;-49
2022/06/01 09:47:50;;;;;;;6.93;3.95;;;16.70;99.90;;;;;;5022919;28;20045;-45
2022/06/01 09:50:32;;;;;;;8.50;3.50;;;16.20;99.90;;;;;;5020834;28;20080;-45
2022/06/01 09:53:10;;;;;;;8.90;3.20;;;15.80;99.90;;;;;;5018065;28;20609;-46
2022/06/01 09:55:57;;;;;;;17.10;4.30;;;15.20;99.90;;;;;;5023332;28;20152;-45
2022/06/01 10:07:02;;;;;;;5.32;2.28;;;13.10;99.90;;;;;;5022057;28;20058;-44
2022/06/01 10:09:33;;;;;;;4.60;2.67;;;12.80;99.90;;;;;;5022653;28;20045;-45
2022/06/01 10:12:18;;;;;;;8.40;3.15;;;12.70;99.90;;;;;;5022420;28;20041;-42
2022/06/01 10:14:53;;;;;;;3.80;2.20;;;12.70;99.90;;;;;;5017502;28;20058;-43
2022/06/01 10:17:36;;;;;;;5.22;2.22;;;12.70;99.90;;;;;;5036434;28;20398;-45
2022/06/01 10:20:22;;;;;;;6.47;2.60;;;12.70;99.90;;;;;;5042619;28;20045;-42
2022/06/01 10:23:03;;;;;;;3.53;1.75;;;12.90;99.90;;;;;;5023118;28;20052;-43
2022/06/01 10:25:49;;;;;;;2.10;1.40;;;13.20;99.90;;;;;;5037331;28;20579;-44
2022/06/01 10:28:31;;;;;;;1.95;1.25;;;13.60;99.90;;;;;;5024479;28;20053;-45
2022/06/01 10:31:00;;;;;;;2.50;0.80;;;14.10;99.90;;;;;;5042876;28;20053;-43
2022/06/01 10:33:41;;;;;;;1.08;0.88;;;14.40;99.90;;;;;;5003844;28;20057;-44
2022/06/01 10:36:16;;;;;;;1.60;1.40;;;14.80;99.90;;;;;;5039155;28;20055;-45
2022/06/01 10:39:00;;;;;;;1.48;0.80;;;15.10;99.90;;;;;;5037489;28;20050;-44
2022/06/01 10:41:35;;;;;;;1.63;1.00;;;15.60;99.90;;;;;;5041641;28;20559;-44
2022/06/01 10:44:26;;;;;;;1.52;1.17;;;16.00;99.90;;;;;;5042048;28;20056;-44
2022/06/01 10:47:00;;;;;;;1.77;0.98;;;16.00;99.90;;;;;;5040640;28;20064;-45
2022/06/01 10:49:57;;;;;;;1.45;1.20;;;15.90;99.90;;;;;;5042398;28;20045;-45
2022/06/01 10:52:35;;;;;;;1.40;1.20;;;15.80;99.90;;;;;;5023699;28;20049;-44
2022/06/01 10:55:12;;;;;;;2.00;1.10;;;15.80;99.90;;;;;;5023730;28;20214;-45
2022/06/01 10:57:42;;;;;;;3.38;1.40;;;15.80;99.90;;;;;;5046078;28;20147;-43
2022/06/01 11:00:14;;;;;;;2.08;1.60;;;16.00;99.90;;;;;;5024453;28;20883;-45
2022/06/01 11:02:55;;;;;;;3.17;2.13;;;16.30;99.90;;;;;;5041892;28;20124;-44
2022/06/01 11:05:45;;;;;;;2.75;2.15;;;16.90;99.90;;;;;;5040771;28;20462;-48
2022/06/01 11:08:49;;;;;;;4.57;2.70;;;17.40;99.90;;;;;;5023184;28;20616;-45
2022/06/01 11:11:33;;;;;;;3.38;2.58;;;17.70;99.90;;;;;;4924692;29;20051;-45
2022/06/01 11:14:09;;;;;;;2.83;2.30;;;18.00;99.90;;;;;;4939666;29;20055;-44
2022/06/01 11:17:08;;;;;;;3.05;2.50;;;18.20;99.90;;;;;;4939321;29;20058;-46
2022/06/01 11:19:57;;;;;;;4.75;3.20;;;18.30;99.90;;;;;;4940677;29;20110;-45
2022/06/01 11:22:25;;;;;;;4.60;3.25;;;18.10;99.90;;;;;;4939918;29;20054;-46
2022/06/01 11:25:12;;;;;;;4.05;3.65;;;18.00;99.90;;;;;;4938660;29;20339;-46
2022/06/01 11:28:09;;;;;;;5.03;3.85;;;17.70;99.90;;;;;;4939758;29;20051;-45
2022/06/01 11:30:54;;;;;;;4.00;3.70;;;17.50;99.90;;;;;;4940505;29;20529;-46
2022/06/01 11:33:58;;;;;;;4.47;4.07;;;17.40;99.90;;;;;;4940105;29;20059;-44
2022/06/01 11:37:01;;;;;;;6.00;3.17;;;17.20;99.90;;;;;;4902328;29;20680;-46
2022/06/01 11:39:31;;;;;;;30.48;7.28;;;16.50;99.90;;;;;;4879250;29;20162;-44
2022/06/01 11:42:01;;;;;;;24.27;5.95;;;15.90;99.90;;;;;;4901276;29;20182;-44
2022/06/01 11:44:34;;;;;;;10.88;4.78;;;15.40;99.90;;;;;;4907027;28;20098;-44
2022/06/01 11:47:21;;;;;;;10.52;3.92;;;14.80;99.90;;;;;;4957791;28;20058;-43
2022/06/01 11:50:24;;;;;;;6.45;3.40;;;14.20;99.90;;;;;;4958578;28;20170;-43
2022/06/01 11:52:56;;;;;;;5.22;3.03;;;13.50;99.90;;;;;;4957939;28;20209;-43
2022/06/01 11:55:40;;;;;;;4.82;3.42;;;13.00;99.90;;;;;;4956931;28;20055;-48
2022/06/01 11:58:10;;;;;;;3.58;3.08;;;12.70;99.90;;;;;;4940593;28;20085;-46
2022/06/01 12:00:48;;;;;;;4.47;4.05;;;12.80;99.90;;;;;;4959167;28;20579;-47
2022/06/01 12:03:20;;;;;;;3.75;3.33;;;12.90;99.90;;;;;;4960497;28;20414;-46
2022/06/01 12:06:35;;;;;;;4.45;3.85;;;13.10;99.90;;;;;;4945725;28;20225;-46
2022/06/01 12:09:03;;;;;;;4.38;2.75;;;13.60;99.90;;;;;;4901689;29;20051;-51
2022/06/01 12:11:45;;;;;;;3.33;2.35;;;13.90;99.90;;;;;;4902516;29;20056;-47
2022/06/01 12:14:40;;;;;;;4.00;2.37;;;14.20;99.90;;;;;;4938492;29;20070;-45
2022/06/01 12:17:18;;;;;;;2.72;2.30;;;14.60;99.90;;;;;;4938660;29;20067;-48
2022/06/01 12:19:47;;;;;;;3.08;1.75;;;14.90;99.90;;;;;;4909903;29;20609;-45
2022/06/01 12:28:31;;;;;;;2.85;1.92;;;14.80;99.90;;;;;;4937255;29;20057;-45
2022/06/01 12:31:12;;;;;;;8.70;2.67;;;14.60;99.90;;;;;;4933898;29;20091;-47
2022/06/01 12:34:07;;;;;;;3.72;2.47;;;14.40;99.90;;;;;;4923905;29;20067;-45
2022/06/01 12:36:50;;;;;;;3.58;2.40;;;14.10;99.90;;;;;;4939191;28;20047;-45
2022/06/01 12:39:34;;;;;;;;;;;14.00;99.90;;;;;;4923814;29;20085;-47
2022/06/01 12:42:23;;;;;;;;;;;14.00;99.90;;;;;;4938434;29;19933;-45
2022/06/01 12:44:52;;;;;;;4.07;2.70;;;14.10;99.90;;;;;;4961389;28;20334;-45
2022/06/01 12:47:37;;;;;;;4.10;2.67;;;14.40;99.90;;;;;;5017700;28;20484;-45
2022/06/01 12:50:13;;;;;;;3.30;3.00;;;14.60;99.90;;;;;;5019852;28;20060;-45
2022/06/01 12:52:39;;;;;;;2.63;2.42;;;14.80;99.90;;;;;;5018936;28;20239;-44
2022/06/01 12:55:09;;;;;;;2.65;2.10;;;15.00;99.90;;;;;;5018020;28;20060;-44
2022/06/01 12:57:41;;;;;;;2.60;2.33;;;15.20;99.90;;;;;;5020407;28;20056;-46
2022/06/01 13:00:29;;;;;;;2.20;2.00;;;15.40;99.90;;;;;;5020146;28;20053;-48
2022/06/01 13:02:56;;;;;;;2.20;1.73;;;15.70;99.90;;;;;;5019678;28;20050;-46
2022/06/01 13:05:56;;;;;;;2.60;2.03;;;15.80;99.90;;;;;;5024786;28;20057;-48
2022/06/01 13:08:32;;;;;;;2.80;1.95;;;15.90;99.90;;;;;;4961282;28;20074;-46
2022/06/01 13:11:23;;;;;;;2.03;1.40;;;16.00;99.90;;;;;;4970180;28;20066;-49
2022/06/01 13:13:51;;;;;;;3.15;2.83;;;16.10;99.90;;;;;;4957421;28;20170;-49
2022/06/01 13:16:19;;;;;;;2.40;1.58;;;16.10;99.90;;;;;;4981332;28;20548;-47
2022/06/01 13:18:52;;;;;;;2.45;1.80;;;16.30;99.90;;;;;;4981478;28;20517;-47
2022/06/01 13:21:36;;;;;;;2.38;1.70;;;16.50;99.90;;;;;;4981488;28;20229;-46
2022/06/01 13:24:08;;;;;;;2.88;2.30;;;16.80;99.90;;;;;;4964351;28;20505;-43
2022/06/01 13:26:39;;;;;;;2.95;2.33;;;16.70;99.90;;;;;;4981604;28;20477;-45
2022/06/01 13:29:22;;;;;;;2.63;2.40;;;16.90;99.90;;;;;;4981663;28;20052;-46
2022/06/01 13:31:51;;;;;;;2.80;2.60;;;16.80;99.90;;;;;;4980354;28;20058;-44
2022/06/01 13:34:53;;;;;;;3.28;2.97;;;16.80;99.90;;;;;;4981741;28;20623;-45
2022/06/01 13:37:24;;;;;;;3.53;3.17;;;16.50;99.90;;;;;;4959516;28;20066;-45
2022/06/01 13:39:54;;;;;;;3.90;3.60;;;16.10;99.90;;;;;;4981159;28;20119;-46